Time;durP1;ratioP1;P1;durP2;ratioP2;P2;SDS_P1;SDS_P2;PMS_P1;PMS_P2;Temp;Humidity;BMP_temperature;BMP_pressure;BME280_temperature;BME280_humidity;BME280_pressure;Samples;Min_cycle;Max_cycle;Signal;HPM_P1;HPM_P2
2023/12/02 00:01:55;;;;;;;9.97;5.30;;;;;;;2.22;100.00;94712.69;5078939;28;20196;-70
2023/12/02 00:04:23;;;;;;;13.63;5.37;;;;;;;2.52;100.00;94706.78;5076615;28;20208;-70
2023/12/02 00:06:50;;;;;;;10.43;4.57;;;;;;;2.50;100.00;94712.16;5078119;28;20196;-71
2023/12/02 00:09:17;;;;;;;9.77;4.97;;;;;;;2.45;100.00;94709.22;5077544;28;20725;-70
2023/12/02 00:11:43;;;;;;;10.83;5.03;;;;;;;2.29;100.00;94707.63;5078125;28;20649;-70
2023/12/02 00:14:10;;;;;;;11.73;5.40;;;;;;;2.48;100.00;94698.53;5077313;28;20203;-69
2023/12/02 00:16:36;;;;;;;12.27;5.03;;;;;;;2.58;100.00;94701.75;5078938;28;20204;-71
2023/12/02 00:19:03;;;;;;;11.33;4.83;;;;;;;2.38;100.00;94714.44;5077178;28;20246;-70
2023/12/02 00:21:31;;;;;;;8.97;4.20;;;;;;;2.38;100.00;94719.63;5077850;28;20230;-69
2023/12/02 00:23:57;;;;;;;9.37;4.77;;;;;;;2.26;100.00;94705.38;5077717;28;20232;-69
2023/12/02 00:26:24;;;;;;;12.63;5.67;;;;;;;2.41;100.00;94713.13;5077823;28;20203;-71
2023/12/02 00:28:51;;;;;;;9.77;4.60;;;;;;;2.23;100.00;94729.06;5077836;28;20225;-70
2023/12/02 00:31:17;;;;;;;14.33;6.73;;;;;;;2.27;100.00;94718.19;5077809;28;20211;-71
2023/12/02 00:33:44;;;;;;;9.10;4.87;;;;;;;2.29;100.00;94712.84;5078132;28;20196;-71
2023/12/02 00:36:11;;;;;;;9.80;4.97;;;;;;;2.32;100.00;94709.91;5077416;28;20200;-70
2023/12/02 00:38:39;;;;;;;11.97;4.77;;;;;;;2.29;100.00;94707.63;5077715;28;20920;-69
2023/12/02 00:41:08;;;;;;;14.23;5.30;;;;;;;1.90;100.00;94719.69;5077300;28;20701;-69
2023/12/02 00:43:35;;;;;;;10.60;5.10;;;;;;;2.04;100.00;94724.22;5078067;28;20196;-70
2023/12/02 00:46:02;;;;;;;11.60;5.40;;;;;;;2.09;100.00;94727.94;5078142;28;20686;-71
2023/12/02 00:48:28;;;;;;;9.80;4.40;;;;;;;1.86;100.00;94721.78;5076501;28;20230;-69
2023/12/02 00:50:55;;;;;;;10.07;4.93;;;;;;;2.15;100.00;94719.50;5077795;28;20200;-70
2023/12/02 00:53:21;;;;;;;11.07;5.17;;;;;;;2.04;100.00;94713.84;5077155;28;20293;-71
2023/12/02 00:55:49;;;;;;;8.77;4.60;;;;;;;2.14;100.00;94711.84;5077848;28;20210;-70
2023/12/02 00:58:16;;;;;;;9.53;4.43;;;;;;;2.12;100.00;94716.44;5076729;28;20572;-70
2023/12/02 01:00:42;;;;;;;7.13;3.93;;;;;;;1.98;100.00;94719.66;5077527;28;20999;-70
2023/12/02 01:03:09;;;;;;;11.50;4.53;;;;;;;1.82;100.00;94714.47;5077466;28;20203;-70
2023/12/02 01:05:35;;;;;;;10.43;4.30;;;;;;;2.05;100.00;94707.66;5076853;28;20203;-70
2023/12/02 01:08:02;;;;;;;9.53;3.47;;;;;;;1.99;100.00;94710.91;5077282;28;20219;-69
2023/12/02 01:10:28;;;;;;;11.20;5.27;;;;;;;1.63;100.00;94721.75;5076159;28;20204;-69
2023/12/02 01:12:56;;;;;;;11.10;4.57;;;;;;;2.16;100.00;94715.13;5077639;28;20210;-70
2023/12/02 01:15:23;;;;;;;9.87;4.67;;;;;;;2.11;100.00;94720.78;5076604;28;20298;-71
2023/12/02 01:17:49;;;;;;;9.03;4.27;;;;;;;1.91;100.00;94713.53;5077309;28;20222;-71
2023/12/02 01:20:16;;;;;;;9.10;3.80;;;;;;;2.03;100.00;94718.19;5076080;28;20230;-72
2023/12/02 01:22:42;;;;;;;7.33;4.33;;;;;;;1.88;100.00;94726.81;5076825;28;20211;-71
2023/12/02 01:25:09;;;;;;;12.13;5.03;;;;;;;1.85;100.00;94724.53;5077160;28;20204;-71
2023/12/02 01:27:36;;;;;;;7.67;4.00;;;;;;;1.88;100.00;94719.00;5076432;28;20203;-70
2023/12/02 01:30:04;;;;;;;7.47;4.13;;;;;;;2.05;100.00;94723.22;5076542;28;21059;-71
2023/12/02 01:32:31;;;;;;;7.23;3.57;;;;;;;1.91;100.00;94736.88;5076381;28;20474;-70
2023/12/02 01:34:57;;;;;;;9.27;4.13;;;;;;;1.90;100.00;94737.84;5076849;28;20206;-70
2023/12/02 01:37:24;;;;;;;9.70;3.87;;;;;;;1.83;100.00;94726.47;5075300;28;20205;-69
2023/12/02 01:39:51;;;;;;;9.60;5.03;;;;;;;1.65;100.00;94722.41;5077146;28;20224;-71
2023/12/02 01:42:18;;;;;;;11.07;4.77;;;;;;;1.60;100.00;94732.44;5076050;28;20208;-71
2023/12/02 01:44:44;;;;;;;11.40;5.40;;;;;;;1.39;100.00;94732.09;5076454;28;20200;-70
2023/12/02 01:47:12;;;;;;;10.93;4.53;;;;;;;1.64;100.00;94739.75;5075893;28;20206;-69
2023/12/02 01:49:40;;;;;;;10.43;4.50;;;;;;;1.58;100.00;94748.19;5076967;28;20222;-70
2023/12/02 01:52:08;;;;;;;11.63;4.90;;;;;;;1.38;100.00;94746.84;5075562;28;20200;-71
2023/12/02 01:54:34;;;;;;;11.47;5.30;;;;;;;1.58;100.00;94745.59;5076021;28;20230;-70
2023/12/02 01:57:02;;;;;;;10.63;5.50;;;;;;;1.53;100.00;94736.66;5076397;28;20657;-69
2023/12/02 01:59:29;;;;;;;12.87;5.03;;;;;;;1.53;100.00;94747.06;5076305;28;20679;-71
2023/12/02 02:01:55;;;;;;;10.50;4.33;;;;;;;1.58;100.00;94743.00;5075732;28;20227;-71
2023/12/02 02:04:24;;;;;;;8.33;4.03;;;;;;;1.73;100.00;94733.59;5076054;28;20215;-70
2023/12/02 02:06:50;;;;;;;10.73;4.83;;;;;;;1.32;100.00;94738.88;5075942;28;21101;-69
2023/12/02 02:09:17;;;;;;;10.47;5.07;;;;;;;1.65;100.00;94731.00;5076089;28;20245;-71
2023/12/02 02:11:43;;;;;;;10.97;4.67;;;;;;;1.83;100.00;94737.69;5075800;28;20200;-69
2023/12/02 02:14:10;;;;;;;11.17;5.17;;;;;;;1.81;100.00;94718.06;5076050;28;20195;-70
2023/12/02 02:16:36;;;;;;;10.00;4.83;;;;;;;1.70;100.00;94726.13;5075792;28;20831;-71
2023/12/02 02:19:03;;;;;;;9.07;4.57;;;;;;;1.68;100.00;94727.28;5075462;28;20220;-70
2023/12/02 02:21:31;;;;;;;8.27;4.30;;;;;;;1.70;100.00;94727.94;5075841;28;20231;-70
2023/12/02 02:23:57;;;;;;;10.47;4.50;;;;;;;1.44;100.00;94735.00;5075093;28;20752;-70
2023/12/02 02:26:24;;;;;;;9.63;4.23;;;;;;;1.71;100.00;94734.75;5075213;28;20203;-69
2023/12/02 02:28:50;;;;;;;10.50;5.17;;;;;;;1.41;100.00;94740.53;5075053;28;20230;-70
2023/12/02 02:31:17;;;;;;;16.13;4.93;;;;;;;1.61;100.00;94745.25;5075703;28;20702;-70
2023/12/02 02:33:43;;;;;;;11.77;5.30;;;;;;;1.70;100.00;94749.50;5075138;28;20210;-69
2023/12/02 02:36:11;;;;;;;10.20;4.43;;;;;;;1.67;100.00;94741.22;5075642;28;20559;-70
2023/12/02 02:38:38;;;;;;;9.53;5.00;;;;;;;1.81;100.00;94742.22;5074909;28;20224;-71
2023/12/02 02:41:05;;;;;;;9.87;5.10;;;;;;;1.69;100.00;94755.66;5075673;28;20216;-69
2023/12/02 02:43:32;;;;;;;10.03;4.93;;;;;;;1.76;100.00;94746.28;5074794;28;20203;-70
2023/12/02 02:45:58;;;;;;;12.27;5.10;;;;;;;1.61;100.00;94747.88;5075727;28;20293;-69
2023/12/02 02:48:25;;;;;;;9.03;3.90;;;;;;;1.51;100.00;94754.97;5074255;28;20322;-70
2023/12/02 02:50:51;;;;;;;7.83;4.13;;;;;;;1.62;100.00;94754.69;5075859;28;20202;-69
2023/12/02 02:53:18;;;;;;;10.10;4.73;;;;;;;1.71;100.00;94753.72;5075003;28;20772;-68
2023/12/02 02:55:46;;;;;;;9.43;4.47;;;;;;;1.74;100.00;94757.78;5075390;28;20244;-70
2023/12/02 02:58:13;;;;;;;9.73;4.77;;;;;;;1.47;100.00;94766.66;5074960;28;20208;-71
2023/12/02 03:00:39;;;;;;;12.03;5.77;;;;;;;1.46;100.00;94769.41;5074815;28;20231;-69
2023/12/02 03:03:05;;;;;;;9.30;4.60;;;;;;;1.28;100.00;94766.91;5073180;28;20673;-69
2023/12/02 03:05:31;;;;;;;10.40;5.30;;;;;;;1.18;100.00;94764.59;5075365;28;20211;-70
2023/12/02 03:07:58;;;;;;;10.60;5.07;;;;;;;1.22;100.00;94764.97;5075137;28;20200;-70
2023/12/02 03:10:24;;;;;;;10.23;5.07;;;;;;;1.21;100.00;94760.72;5073919;28;20644;-69
2023/12/02 03:12:52;;;;;;;10.57;4.93;;;;;;;1.38;100.00;94757.22;5075454;28;20210;-70
2023/12/02 03:15:18;;;;;;;10.90;4.70;;;;;;;1.12;100.00;94766.06;5075514;28;20604;-70
2023/12/02 03:17:45;;;;;;;12.40;5.30;;;;;;;1.23;100.00;94765.75;5075178;28;20209;-70
2023/12/02 03:20:12;;;;;;;12.97;5.40;;;;;;;0.95;100.00;94761.75;5075231;28;20719;-70
2023/12/02 03:22:39;;;;;;;13.93;5.67;;;;;;;1.10;100.00;94767.19;5075362;28;20250;-70
2023/12/02 03:25:06;;;;;;;12.23;6.03;;;;;;;1.01;100.00;94783.66;5075178;28;20203;-70
2023/12/02 03:27:33;;;;;;;12.57;5.83;;;;;;;1.08;100.00;94792.44;5074685;28;20285;-70
2023/12/02 03:30:00;;;;;;;11.80;5.23;;;;;;;1.07;100.00;94789.06;5074857;28;20220;-70
2023/12/02 03:32:27;;;;;;;10.00;4.83;;;;;;;1.02;100.00;94777.50;5074796;28;20203;-70
2023/12/02 03:34:53;;;;;;;12.37;4.83;;;;;;;1.04;100.00;94776.38;5075566;28;20203;-70
2023/12/02 03:37:20;;;;;;;14.00;5.77;;;;;;;1.18;100.00;94772.38;5074239;28;20719;-70
2023/12/02 03:39:46;;;;;;;13.53;5.83;;;;;;;1.17;100.00;94781.13;5077881;28;20616;-70
2023/12/02 03:42:13;;;;;;;12.90;6.10;;;;;;;1.18;100.00;94774.97;5078740;28;20227;-70
2023/12/02 03:44:39;;;;;;;15.97;5.77;;;;;;;1.12;100.00;94765.22;5079005;28;20207;-70
2023/12/02 03:47:08;;;;;;;12.37;5.37;;;;;;;1.37;100.00;94755.59;5078387;28;20205;-70
2023/12/02 03:49:34;;;;;;;13.53;5.67;;;;;;;1.05;100.00;94759.84;5078179;28;20324;-70
2023/12/02 03:52:01;;;;;;;14.63;5.63;;;;;;;1.19;100.00;94745.50;5078149;28;20206;-70
2023/12/02 03:54:27;;;;;;;13.60;6.67;;;;;;;1.20;100.00;94748.72;5078165;28;20821;-71
2023/12/02 03:56:54;;;;;;;13.77;6.63;;;;;;;1.17;100.00;94753.41;5077945;28;20198;-70
2023/12/02 03:59:20;;;;;;;13.67;6.10;;;;;;;0.78;100.00;94757.44;5076543;28;20220;-70
2023/12/02 04:01:47;;;;;;;13.90;5.33;;;;;;;0.86;100.00;94769.66;5077901;28;20219;-70
2023/12/02 04:04:15;;;;;;;14.10;6.27;;;;;;;0.80;100.00;94771.09;5078026;28;20203;-70
2023/12/02 04:06:42;;;;;;;11.93;5.60;;;;;;;0.60;100.00;94774.84;5077909;28;20673;-70
2023/12/02 04:09:11;;;;;;;17.17;6.43;;;;;;;0.59;100.00;94800.91;5077861;28;20315;-69
2023/12/02 04:11:37;;;;;;;14.30;6.07;;;;;;;0.62;100.00;94804.03;5077243;28;20210;-71
2023/12/02 04:14:04;;;;;;;15.30;5.77;;;;;;;0.69;100.00;94807.63;5078475;28;20196;-70
2023/12/02 04:16:31;;;;;;;16.83;5.20;;;;;;;0.67;100.00;94811.34;5077167;28;20218;-70
2023/12/02 04:18:57;;;;;;;13.43;5.77;;;;;;;0.78;100.00;94809.28;5078821;28;20235;-70
2023/12/02 04:21:26;;;;;;;13.90;5.90;;;;;;;0.69;100.00;94824.97;5077616;28;20220;-70
2023/12/02 04:23:53;;;;;;;15.53;6.30;;;;;;;0.70;100.00;94826.56;5077838;28;20207;-70
2023/12/02 04:26:19;;;;;;;12.60;6.57;;;;;;;0.53;100.00;94827.44;5078221;28;20204;-70
2023/12/02 04:28:46;;;;;;;16.27;6.77;;;;;;;0.64;100.00;94833.19;5079064;28;20223;-70
2023/12/02 04:31:12;;;;;;;13.23;6.90;;;;;;;0.71;100.00;94829.03;5077523;28;20202;-70
2023/12/02 04:33:39;;;;;;;14.43;6.57;;;;;;;0.90;100.00;94848.75;5077784;28;21268;-70
2023/12/02 04:36:08;;;;;;;14.93;6.97;;;;;;;0.90;100.00;94861.72;5078399;28;20223;-70
2023/12/02 04:38:36;;;;;;;13.90;6.30;;;;;;;0.96;100.00;94868.88;5076849;28;20580;-70
2023/12/02 04:41:02;;;;;;;18.23;7.33;;;;;;;0.58;100.00;94864.06;5077543;28;20214;-70
2023/12/02 04:43:29;;;;;;;15.23;5.83;;;;;;;0.61;100.00;94864.59;5077648;28;20203;-70
2023/12/02 04:45:56;;;;;;;16.80;6.43;;;;;;;0.57;100.00;94865.03;5078004;28;20209;-70
2023/12/02 04:48:22;;;;;;;17.47;6.80;;;;;;;0.76;100.00;94868.28;5076401;28;21103;-70
2023/12/02 04:50:49;;;;;;;15.73;7.07;;;;;;;0.72;100.00;94860.94;5076872;28;20207;-70
2023/12/02 04:53:17;;;;;;;14.00;5.40;;;;;;;0.95;100.00;94865.47;5077171;28;20207;-71
2023/12/02 04:55:44;;;;;;;19.90;7.03;;;;;;;0.99;100.00;94869.38;5077307;28;20199;-70
2023/12/02 04:58:11;;;;;;;18.27;7.40;;;;;;;1.05;100.00;94863.59;5076221;28;20214;-70
2023/12/02 05:00:38;;;;;;;11.70;5.37;;;;;;;0.82;100.00;94872.03;5077338;28;20256;-70
2023/12/02 05:03:05;;;;;;;14.77;6.37;;;;;;;0.80;100.00;94868.75;5076527;28;20216;-70
2023/12/02 05:05:32;;;;;;;14.00;6.47;;;;;;;0.72;100.00;94866.13;5076648;28;20231;-69
2023/12/02 05:07:59;;;;;;;15.17;6.17;;;;;;;0.70;100.00;94871.47;5076891;28;20253;-70
2023/12/02 05:10:26;;;;;;;18.20;6.37;;;;;;;0.54;100.00;94872.31;5076773;28;20234;-70
2023/12/02 05:12:54;;;;;;;13.37;5.50;;;;;;;0.72;100.00;94871.31;5076606;28;20700;-70
2023/12/02 05:15:21;;;;;;;16.17;6.67;;;;;;;0.64;100.00;94868.66;5076635;28;20211;-70
2023/12/02 05:17:48;;;;;;;19.30;7.00;;;;;;;0.78;100.00;94870.72;5076508;28;20205;-70
2023/12/02 05:20:15;;;;;;;14.93;6.57;;;;;;;0.80;100.00;94881.72;5076384;28;20247;-70
2023/12/02 05:22:42;;;;;;;20.10;7.80;;;;;;;0.98;100.00;94882.50;5076576;28;20226;-70
2023/12/02 05:25:10;;;;;;;15.43;7.07;;;;;;;0.69;100.00;94880.19;5076480;28;20210;-70
2023/12/02 05:27:37;;;;;;;14.63;5.70;;;;;;;0.65;100.00;94883.25;5075777;28;20213;-70
2023/12/02 05:30:06;;;;;;;12.67;5.40;;;;;;;0.77;100.00;94885.44;5076905;28;20239;-69
2023/12/02 05:32:32;;;;;;;20.03;6.93;;;;;;;0.63;100.00;94903.31;5076984;28;20236;-70
2023/12/02 05:34:59;;;;;;;16.17;6.73;;;;;;;0.51;100.00;94914.03;5076354;28;20203;-70
2023/12/02 05:37:26;;;;;;;16.43;6.60;;;;;;;0.75;100.00;94928.03;5076269;28;20207;-70
2023/12/02 05:39:52;;;;;;;17.93;6.60;;;;;;;0.68;100.00;94929.59;5077346;28;20224;-70
2023/12/02 05:42:19;;;;;;;18.83;6.93;;;;;;;0.64;100.00;94931.66;5076347;28;20227;-70
2023/12/02 05:44:45;;;;;;;17.80;7.53;;;;;;;0.64;100.00;94936.03;5076069;28;20291;-69
2023/12/02 05:47:13;;;;;;;15.77;6.60;;;;;;;0.87;100.00;94939.81;5076554;28;20203;-70
2023/12/02 05:49:42;;;;;;;17.63;6.83;;;;;;;1.00;100.00;94937.63;5076179;28;20239;-71
2023/12/02 05:52:08;;;;;;;15.77;6.57;;;;;;;0.63;100.00;94942.19;5076033;28;20215;-70
2023/12/02 05:54:35;;;;;;;14.73;6.00;;;;;;;0.66;100.00;94944.47;5076770;28;20210;-70
2023/12/02 05:57:02;;;;;;;20.17;7.43;;;;;;;0.90;100.00;94942.09;5076330;28;20204;-69
2023/12/02 05:59:28;;;;;;;20.70;6.43;;;;;;;0.99;100.00;94941.19;5075354;28;20235;-69
2023/12/02 06:01:55;;;;;;;20.03;6.83;;;;;;;1.00;100.00;94943.63;5076503;28;20220;-69
2023/12/02 06:04:22;;;;;;;13.40;6.13;;;;;;;1.23;100.00;94937.81;5076075;28;20797;-70
2023/12/02 06:06:49;;;;;;;12.33;5.83;;;;;;;0.96;100.00;94942.28;5075421;28;20207;-70
2023/12/02 06:09:16;;;;;;;13.60;5.90;;;;;;;1.12;100.00;94936.41;5075513;28;20717;-71
2023/12/02 06:11:43;;;;;;;16.10;6.37;;;;;;;0.86;100.00;94944.16;5076138;28;20206;-70
2023/12/02 06:14:10;;;;;;;17.07;6.30;;;;;;;0.96;100.00;94946.69;5075626;28;20210;-71
2023/12/02 06:16:36;;;;;;;18.37;6.27;;;;;;;0.76;100.00;94940.84;5075748;28;20199;-70
2023/12/02 06:19:03;;;;;;;16.80;7.13;;;;;;;0.70;100.00;94935.44;5075248;28;20677;-71
2023/12/02 06:21:31;;;;;;;17.20;7.07;;;;;;;0.89;100.00;94932.66;5076295;28;20204;-71
2023/12/02 06:23:57;;;;;;;14.13;6.30;;;;;;;0.65;100.00;94938.47;5076163;28;20294;-70
2023/12/02 06:26:24;;;;;;;19.67;6.53;;;;;;;0.93;100.00;94941.78;5075735;28;20577;-70
2023/12/02 06:28:50;;;;;;;16.20;7.03;;;;;;;1.04;100.00;94936.34;5075351;28;20223;-71
2023/12/02 06:31:18;;;;;;;16.03;6.60;;;;;;;0.95;100.00;94938.06;5075583;28;20207;-71
2023/12/02 06:33:44;;;;;;;16.33;6.23;;;;;;;0.74;100.00;94947.16;5075589;28;20207;-71
2023/12/02 06:36:12;;;;;;;15.03;6.30;;;;;;;0.71;100.00;94945.66;5075468;28;20579;-71
2023/12/02 06:38:40;;;;;;;14.53;6.17;;;;;;;0.87;100.00;94948.38;5074864;28;20219;-70
2023/12/02 06:41:07;;;;;;;20.57;7.90;;;;;;;0.92;100.00;94950.53;5075863;28;20206;-71
2023/12/02 06:43:34;;;;;;;16.27;6.67;;;;;;;0.83;100.00;94954.03;5075511;28;20230;-71
2023/12/02 06:46:01;;;;;;;20.17;7.20;;;;;;;0.90;100.00;94957.63;5075793;28;20207;-71
2023/12/02 06:48:27;;;;;;;19.50;7.63;;;;;;;0.72;100.00;94959.44;5075430;28;20230;-70
2023/12/02 06:50:55;;;;;;;19.43;7.03;;;;;;;0.64;100.00;94951.59;5075138;28;20204;-71
2023/12/02 06:53:22;;;;;;;18.90;6.57;;;;;;;0.61;100.00;94952.69;5076086;28;20285;-71
2023/12/02 06:55:50;;;;;;;21.50;7.50;;;;;;;0.76;100.00;94971.13;5075283;28;21050;-71
2023/12/02 06:58:17;;;;;;;21.67;7.93;;;;;;;0.53;100.00;94985.50;5074434;28;20210;-71
2023/12/02 07:00:43;;;;;;;16.47;7.53;;;;;;;0.79;100.00;94994.97;5074937;28;20348;-71
2023/12/02 07:03:10;;;;;;;23.17;7.70;;;;;;;0.67;100.00;95005.72;5075808;28;20220;-71
2023/12/02 07:05:36;;;;;;;21.70;7.80;;;;;;;0.81;100.00;95008.59;5075159;28;20265;-70
2023/12/02 07:08:03;;;;;;;19.50;7.37;;;;;;;0.80;100.00;95019.13;5074999;28;20199;-71
2023/12/02 07:10:29;;;;;;;13.67;6.27;;;;;;;0.82;100.00;95018.00;5075245;28;20712;-71
2023/12/02 07:12:57;;;;;;;20.30;8.60;;;;;;;1.03;100.00;95022.88;5075699;28;20192;-70
2023/12/02 07:15:23;;;;;;;17.53;6.57;;;;;;;1.10;100.00;95031.72;5078829;28;20222;-70
2023/12/02 07:17:50;;;;;;;18.77;7.27;;;;;;;1.04;100.00;95043.47;5079512;28;21263;-70
2023/12/02 07:20:17;;;;;;;20.53;8.53;;;;;;;0.99;100.00;95050.91;5079642;28;20216;-70
2023/12/02 07:22:43;;;;;;;19.47;7.60;;;;;;;1.00;100.00;95056.91;5078374;28;20235;-71
2023/12/02 07:25:10;;;;;;;17.30;7.30;;;;;;;0.96;100.00;95050.41;5079206;28;20662;-70
2023/12/02 07:27:36;;;;;;;18.40;7.33;;;;;;;0.90;100.00;95046.59;5076609;28;20230;-70
2023/12/02 07:30:05;;;;;;;18.97;7.37;;;;;;;1.11;100.00;95054.06;5078880;28;20230;-71
2023/12/02 07:32:31;;;;;;;18.13;7.30;;;;;;;1.05;100.00;95052.09;5077807;28;20698;-71
2023/12/02 07:34:58;;;;;;;18.10;6.27;;;;;;;0.87;100.00;95057.28;5079492;28;20210;-71
2023/12/02 07:37:24;;;;;;;19.33;7.77;;;;;;;0.86;100.00;95055.63;5078150;28;20203;-70
2023/12/02 07:39:51;;;;;;;16.93;6.47;;;;;;;0.75;100.00;95058.47;5079121;28;20628;-71
2023/12/02 07:42:18;;;;;;;18.37;7.90;;;;;;;0.78;100.00;95063.34;5078290;28;20233;-70
2023/12/02 07:44:44;;;;;;;16.80;6.63;;;;;;;1.04;100.00;95069.41;5078803;28;20212;-71
2023/12/02 07:47:12;;;;;;;18.13;6.37;;;;;;;1.21;100.00;95069.44;5077900;28;20200;-70
2023/12/02 07:49:39;;;;;;;18.67;6.90;;;;;;;1.12;100.00;95071.28;5078950;28;20271;-71
2023/12/02 07:52:06;;;;;;;21.43;7.23;;;;;;;1.16;100.00;95077.78;5077825;28;20638;-70
2023/12/02 07:54:32;;;;;;;16.83;7.40;;;;;;;1.21;100.00;95076.41;5078826;28;20409;-70
2023/12/02 07:56:59;;;;;;;16.90;7.27;;;;;;;1.06;100.00;95077.03;5078560;28;20210;-71
2023/12/02 07:59:25;;;;;;;19.93;8.00;;;;;;;1.22;100.00;95081.44;5077943;28;20228;-71
2023/12/02 08:01:52;;;;;;;18.43;6.80;;;;;;;1.30;100.00;95075.50;5076846;28;20211;-70
2023/12/02 08:04:20;;;;;;;15.63;6.07;;;;;;;1.39;100.00;95085.00;5076859;28;20265;-71
2023/12/02 08:06:46;;;;;;;22.80;7.20;;;;;;;0.88;100.00;95087.44;5076130;28;20225;-71
2023/12/02 08:09:14;;;;;;;17.07;6.93;;;;;;;1.07;100.00;95092.50;5077698;28;20235;-70
2023/12/02 08:11:41;;;;;;;18.30;5.97;;;;;;;1.04;100.00;95097.94;5078146;28;20269;-69
2023/12/02 08:14:07;;;;;;;14.80;6.00;;;;;;;1.05;100.00;95102.19;5078404;28;20757;-71
2023/12/02 08:16:34;;;;;;;20.97;7.90;;;;;;;1.09;100.00;95102.72;5077561;28;20211;-70
2023/12/02 08:19:01;;;;;;;13.47;6.30;;;;;;;1.01;100.00;95110.41;5076984;28;20230;-70
2023/12/02 08:21:29;;;;;;;12.73;5.53;;;;;;;1.20;100.00;95109.28;5078147;28;20207;-70
2023/12/02 08:23:56;;;;;;;17.17;6.40;;;;;;;1.23;100.00;95115.97;5077208;28;20223;-71
2023/12/02 08:26:22;;;;;;;18.77;6.33;;;;;;;1.27;100.00;95118.13;5077211;28;20693;-71
2023/12/02 08:28:49;;;;;;;15.13;6.30;;;;;;;1.28;100.00;95126.72;5077176;28;20224;-72
2023/12/02 08:31:15;;;;;;;14.63;6.53;;;;;;;1.45;100.00;95131.09;5077811;28;20200;-71
2023/12/02 08:33:42;;;;;;;16.77;6.47;;;;;;;1.53;100.00;95134.56;5077281;28;20207;-71
2023/12/02 08:36:09;;;;;;;15.17;6.17;;;;;;;1.41;100.00;95135.78;5078260;28;20206;-71
2023/12/02 08:38:37;;;;;;;16.33;6.63;;;;;;;1.47;100.00;95142.94;5076912;28;20753;-71
2023/12/02 08:41:04;;;;;;;14.37;5.30;;;;;;;1.53;100.00;95144.97;5077961;28;20211;-71
2023/12/02 08:43:30;;;;;;;14.20;6.00;;;;;;;1.62;100.00;95146.66;5078005;28;20322;-71
2023/12/02 08:45:57;;;;;;;15.93;6.37;;;;;;;1.26;100.00;95152.81;5077537;28;20214;-70
2023/12/02 08:48:24;;;;;;;15.33;6.07;;;;;;;1.28;100.00;95153.47;5076971;28;20211;-71
2023/12/02 08:50:51;;;;;;;14.87;5.30;;;;;;;1.46;100.00;95159.47;5077912;28;20208;-71
2023/12/02 08:53:17;;;;;;;14.37;5.60;;;;;;;1.38;100.00;95156.00;5077497;28;20234;-71
2023/12/02 08:55:45;;;;;;;11.47;4.80;;;;;;;1.70;100.00;95154.50;5077153;28;20208;-71
2023/12/02 08:58:12;;;;;;;21.27;6.67;;;;;;;1.55;100.00;95158.59;5077028;28;20210;-71
2023/12/02 09:00:38;;;;;;;16.87;6.17;;;;;;;1.51;100.00;95159.84;5077254;28;20372;-71
2023/12/02 09:03:05;;;;;;;15.23;6.60;;;;;;;1.56;100.00;95167.22;5076976;28;20224;-71
2023/12/02 09:05:31;;;;;;;17.77;7.47;;;;;;;1.32;100.00;95170.41;5077011;28;20204;-71
2023/12/02 09:08:00;;;;;;;18.33;6.47;;;;;;;1.62;100.00;95164.81;5077364;28;20211;-71
2023/12/02 09:10:26;;;;;;;12.87;5.60;;;;;;;1.60;100.00;95169.34;5075425;28;20384;-71
2023/12/02 09:12:54;;;;;;;17.70;6.07;;;;;;;1.77;100.00;95162.50;5077382;28;20678;-71
2023/12/02 09:15:38;;;;;;;15.87;5.73;;;;;;;2.14;100.00;95179.50;5077464;28;20216;-71
2023/12/02 09:18:09;;;;;;;15.47;6.37;;;;;;;2.19;100.00;95175.50;5076397;28;20200;-71
2023/12/02 09:20:43;;;;;;;16.10;6.43;;;;;;;2.34;100.00;95179.16;5077056;28;20254;-71
2023/12/02 09:23:11;;;;;;;12.40;6.13;;;;;;;2.29;100.00;95185.78;5076485;28;20892;-71
2023/12/02 09:25:39;;;;;;;13.03;5.47;;;;;;;2.14;100.00;95182.09;5076857;28;20211;-71
2023/12/02 09:28:23;;;;;;;16.17;6.20;;;;;;;2.25;100.00;95184.47;5077093;28;20276;-71
2023/12/02 09:30:56;;;;;;;19.03;7.03;;;;;;;2.21;100.00;95198.72;5077310;28;20253;-71
2023/12/02 09:33:22;;;;;;;17.70;5.97;;;;;;;1.93;100.00;95203.22;5077942;28;20251;-71
2023/12/02 09:35:53;;;;;;;13.83;5.43;;;;;;;1.94;100.00;95202.25;5076892;28;20588;-71
2023/12/02 09:38:20;;;;;;;13.30;6.67;;;;;;;1.96;100.00;95209.88;5076702;28;20204;-71
2023/12/02 09:41:04;;;;;;;10.93;5.30;;;;;;;2.26;100.00;95206.88;5076345;28;20200;-71
2023/12/02 09:43:37;;;;;;;10.20;5.37;;;;;;;2.11;100.00;95206.59;5076930;28;20313;-71
2023/12/02 09:46:22;;;;;;;11.17;4.57;;;;;;;2.09;100.00;95215.53;5075970;28;20587;-71
2023/12/02 09:49:06;;;;;;;13.10;5.00;;;;;;;2.30;100.00;95214.22;5076241;28;20251;-71
2023/12/02 09:51:50;;;;;;;14.60;5.83;;;;;;;1.96;100.00;95215.91;5076202;28;20843;-71
2023/12/02 09:54:26;;;;;;;7.43;3.97;;;;;;;1.84;100.00;95216.28;5076221;28;20201;-71
2023/12/02 09:56:56;;;;;;;11.47;4.57;;;;;;;2.09;100.00;95215.53;5074522;28;21145;-70
2023/12/02 09:59:40;;;;;;;8.27;4.13;;;;;;;2.17;100.00;95215.59;5076347;28;20230;-71
2023/12/02 10:02:19;;;;;;;12.83;4.90;;;;;;;1.99;100.00;95223.41;5076290;28;20215;-71
2023/12/02 10:04:55;;;;;;;10.10;4.90;;;;;;;2.20;100.00;95228.28;5075840;28;20246;-71
2023/12/02 10:07:34;;;;;;;13.20;5.33;;;;;;;2.46;100.00;95230.75;5075545;28;20210;-71
2023/12/02 10:10:08;;;;;;;9.07;4.30;;;;;;;2.04;100.00;95226.38;5076058;28;20234;-71
2023/12/02 10:12:46;;;;;;;12.17;4.93;;;;;;;1.92;100.00;95226.75;5076095;28;20218;-71
2023/12/02 10:15:16;;;;;;;8.60;4.07;;;;;;;1.73;100.00;95226.88;5075936;28;21337;-71
2023/12/02 10:17:50;;;;;;;8.33;4.33;;;;;;;2.14;100.00;95234.06;5075641;28;20318;-71
2023/12/02 10:20:20;;;;;;;12.90;5.27;;;;;;;1.75;100.00;95224.97;5075979;28;20227;-71
2023/12/02 10:22:49;;;;;;;12.70;5.20;;;;;;;1.90;100.00;95233.88;5076014;28;20200;-70
2023/12/02 10:25:31;;;;;;;10.33;4.90;;;;;;;2.15;100.00;95235.69;5076120;28;20203;-71
2023/12/02 10:28:06;;;;;;;14.23;6.23;;;;;;;1.86;100.00;95229.97;5075091;28;20204;-70
2023/12/02 10:30:38;;;;;;;11.80;5.43;;;;;;;2.03;100.00;95231.72;5075903;28;20583;-71
2023/12/02 10:33:10;;;;;;;12.33;5.17;;;;;;;2.17;100.00;95237.19;5075493;28;20627;-71
2023/12/02 10:35:42;;;;;;;13.93;5.80;;;;;;;1.92;100.00;95244.94;5076067;28;20212;-71
2023/12/02 10:38:18;;;;;;;14.63;6.10;;;;;;;2.18;100.00;95256.22;5075258;28;20237;-71
2023/12/02 10:40:48;;;;;;;15.17;6.90;;;;;;;2.20;100.00;95252.50;5076159;28;20203;-71
2023/12/02 10:43:23;;;;;;;14.07;5.80;;;;;;;2.03;100.00;95255.09;5075062;28;20831;-70
2023/12/02 10:45:52;;;;;;;15.67;6.50;;;;;;;1.76;100.00;95256.94;5075730;28;20203;-70
2023/12/02 10:48:19;;;;;;;13.43;5.87;;;;;;;1.28;100.00;95269.41;5074754;28;20214;-71
2023/12/02 10:50:47;;;;;;;10.60;4.93;;;;;;;1.48;100.00;95276.16;5075834;28;20276;-71
2023/12/02 10:53:15;;;;;;;10.93;5.40;;;;;;;1.73;100.00;95271.03;5075473;28;20196;-71
2023/12/02 10:55:45;;;;;;;12.10;5.57;;;;;;;1.84;100.00;95273.44;5075672;28;20609;-71
2023/12/02 10:58:13;;;;;;;14.30;5.23;;;;;;;1.88;100.00;95279.97;5074536;28;20207;-71
2023/12/02 11:00:45;;;;;;;12.07;5.37;;;;;;;1.83;100.00;95287.38;5075166;28;20203;-71
2023/12/02 11:03:22;;;;;;;14.10;5.73;;;;;;;2.00;100.00;95284.78;5075958;28;20224;-71
2023/12/02 11:05:56;;;;;;;13.77;5.90;;;;;;;1.80;100.00;95292.06;5074934;28;21257;-71
2023/12/02 11:08:44;;;;;;;14.63;6.43;;;;;;;1.96;100.00;95286.06;5074940;28;20206;-71
2023/12/02 11:11:18;;;;;;;14.47;6.17;;;;;;;1.77;100.00;95293.19;5076548;28;20203;-72
2023/12/02 11:13:48;;;;;;;13.30;6.70;;;;;;;1.53;100.00;95295.50;5075763;28;20199;-71
2023/12/02 11:16:26;;;;;;;14.33;6.03;;;;;;;1.53;100.00;95292.09;5075022;28;20226;-71
2023/12/02 11:19:15;;;;;;;14.10;5.87;;;;;;;1.81;100.00;95297.09;5074949;28;20816;-70
2023/12/02 11:21:50;;;;;;;12.83;5.20;;;;;;;1.64;100.00;95307.47;5075586;28;20277;-71
2023/12/02 11:24:27;;;;;;;10.70;4.57;;;;;;;1.76;100.00;95308.88;5075220;28;20234;-71
2023/12/02 11:27:08;;;;;;;15.03;5.87;;;;;;;1.71;100.00;95309.31;5074474;28;20219;-71
2023/12/02 11:29:43;;;;;;;11.80;4.73;;;;;;;1.46;100.00;95325.59;5075472;28;20219;-71
2023/12/02 11:32:18;;;;;;;12.63;5.33;;;;;;;1.56;100.00;95328.16;5075389;28;20200;-70